Time;durP1;ratioP1;P1;durP2;ratioP2;P2;SDS_P1;SDS_P2;PMS_P1;PMS_P2;Temp;Humidity;BMP_temperature;BMP_pressure;BME280_temperature;BME280_humidity;BME280_pressure;Samples;Min_cycle;Max_cycle;Signal;HPM_P1;HPM_P2
2022/01/28 00:00:41;;;;;;;;;;;;;;;-0.88;60.06;100372.63;5009498;28;19997;-82
2022/01/28 00:03:08;;;;;;;;;;;;;;;-0.75;59.52;100361.94;5009999;28;19914;-81
2022/01/28 00:05:34;;;;;;;;;;;;;;;-0.61;58.83;100364.22;5024484;28;19924;-81
2022/01/28 00:08:00;;;;;;;;;;;;;;;-0.63;59.24;100366.75;5025512;28;19918;-83
2022/01/28 00:10:26;;;;;;;;;;;;;;;-0.67;58.84;100367.44;5009958;28;20260;-82
2022/01/28 00:15:28;;;;;;;;;;;;;;;-0.68;58.85;100357.00;5009144;28;20064;-81
2022/01/28 00:39:09;;;;;;;;;;;;;;;-0.84;60.13;100352.91;5008834;28;19914;-81
2022/01/28 00:41:35;;;;;;;;;;;;;;;-0.75;59.93;100346.38;5008563;28;19917;-81
2022/01/28 00:44:00;;;;;;;;;;;;;;;-0.80;59.27;100347.91;5008282;28;20422;-82
2022/01/28 00:46:25;;;;;;;;;;;;;;;-0.94;59.85;100346.47;5007617;28;20446;-81
2022/01/28 00:48:50;;;;;;;;;;;;;;;-0.90;59.46;100343.16;5008531;28;19984;-81
2022/01/28 00:51:16;;;;;;;;;;;;;;;-0.90;59.86;100343.16;5009165;28;20426;-81
2022/01/28 00:53:41;;;;;;;;;;;;;;;-0.76;59.15;100341.13;5007543;28;19920;-81
2022/01/28 00:56:06;;;;;;;;;;;;;;;-0.77;58.88;100340.25;5021589;28;20386;-81
2022/01/28 00:58:32;;;;;;;;;;;;;;;-1.26;59.43;100308.03;5027818;28;20015;-81
2022/01/28 01:00:57;;;;;;;;;;;;;;;-1.05;59.75;100329.56;5015166;28;19923;-81
2022/01/28 01:03:23;;;;;;;;;;;;;;;-1.33;60.16;100321.53;5007576;28;19913;-81
2022/01/28 01:05:48;;;;;;;;;;;;;;;-1.64;60.24;100322.78;5018941;28;19924;-81
2022/01/28 01:08:14;;;;;;;;;;;;;;;-1.91;60.65;100321.56;5027861;28;19909;-81
2022/01/28 01:10:39;;;;;;;;;;;;;;;-1.85;60.79;100317.53;5015366;28;20797;-81
2022/01/28 01:13:05;;;;;;;;;;;;;;;-1.68;60.47;100309.66;5008273;28;20016;-81
2022/01/28 01:15:35;;;;;;;;;;;;;;;-1.62;59.53;100304.75;5007575;28;19921;-81
2022/01/28 01:18:15;;;;;;;;;;;;;;;-1.83;59.80;100299.50;5008250;28;19914;-81
2022/01/28 01:23:21;;;;;;;;;;;;;;;-1.63;59.25;100285.72;5027906;28;19913;-81
2022/01/28 01:28:13;;;;;;;;;;;;;;;-1.83;60.59;100277.09;5007875;28;19918;-81
2022/01/28 01:30:43;;;;;;;;;;;;;;;-1.72;59.79;100271.53;5007951;28;20669;-81
2022/01/28 01:33:09;;;;;;;;;;;;;;;-1.90;60.05;100263.84;5007887;28;20638;-80
2022/01/28 01:35:35;;;;;;;;;;;;;;;-1.82;60.30;100258.19;5017599;28;19917;-81
2022/01/28 01:38:00;;;;;;;;;;;;;;;-1.95;60.52;100255.88;5027192;28;19923;-80
2022/01/28 01:40:35;;;;;;;;;;;;;;;-1.84;60.02;100248.59;5013933;28;19913;-81
2022/01/28 01:43:20;;;;;;;;;;;;;;;-1.63;59.57;100239.16;5008705;28;19918;-81
2022/01/28 01:46:03;;;;;;;;;;;;;;;-1.63;60.23;100233.13;5021475;28;20299;-80
2022/01/28 01:54:00;;;;;;;;;;;;;;;-1.36;59.50;100233.41;5027578;28;19974;-81
2022/01/28 01:56:25;;;;;;;;;;;;;;;-1.53;60.17;100234.38;5027279;28;20280;-82
2022/01/28 01:58:51;;;;;;;;;;;;;;;-1.53;60.41;100221.44;5024717;28;19932;-80
2022/01/28 02:01:16;;;;;;;;;;;;;;;-1.53;59.66;100218.84;5007489;28;20449;-81
2022/01/28 02:03:42;;;;;;;;;;;;;;;-1.57;59.44;100209.22;5010037;28;19923;-81
2022/01/28 02:06:07;;;;;;;;;;;;;;;-1.58;59.97;100205.72;5007565;28;20646;-80
2022/01/28 02:08:34;;;;;;;;;;;;;;;-1.66;59.95;100199.34;5007300;28;19937;-80
2022/01/28 02:11:00;;;;;;;;;;;;;;;-1.64;59.76;100185.66;5010787;28;19991;-80
2022/01/28 02:13:26;;;;;;;;;;;;;;;-1.56;59.96;100186.00;5026422;28;19913;-81
2022/01/28 02:15:52;;;;;;;;;;;;;;;-1.52;59.65;100180.09;5025558;28;19913;-81
2022/01/28 02:18:17;;;;;;;;;;;;;;;-1.51;59.36;100179.28;5024658;28;19915;-81
2022/01/28 02:20:47;;;;;;;;;;;;;;;-1.58;59.73;100179.84;5014918;28;19939;-81
2022/01/28 02:23:13;;;;;;;;;;;;;;;-1.56;59.27;100180.81;5026656;28;19936;-82
2022/01/28 02:25:38;;;;;;;;;;;;;;;-1.58;60.04;100178.97;5026844;28;20372;-81
2022/01/28 02:28:06;;;;;;;;;;;;;;;-1.33;59.59;100178.25;5026570;28;19917;-81
2022/01/28 02:30:32;;;;;;;;;;;;;;;-1.53;59.66;100173.19;5026392;28;19923;-81
2022/01/28 02:33:08;;;;;;;;;;;;;;;-1.47;59.48;100169.94;5025787;28;20659;-81
2022/01/28 02:35:33;;;;;;;;;;;;;;;-1.63;60.27;100158.97;5007075;28;19917;-81
2022/01/28 02:37:59;;;;;;;;;;;;;;;-1.81;59.80;100163.38;5007964;28;19914;-81
2022/01/28 02:40:25;;;;;;;;;;;;;;;-1.82;59.92;100157.31;5018135;28;20291;-82
2022/01/28 02:43:05;;;;;;;;;;;;;;;-2.00;60.37;100144.47;5005855;28;20287;-81
2022/01/28 02:45:36;;;;;;;;;;;;;;;-1.74;59.57;100136.94;5005585;28;19919;-81
2022/01/28 02:48:06;;;;;;;;;;;;;;;-1.67;59.37;100122.56;5008237;28;20605;-81
2022/01/28 02:50:39;;;;;;;;;;;;;;;-1.60;59.20;100119.41;5026420;28;19983;-81
2022/01/28 02:53:08;;;;;;;;;;;;;;;-1.69;58.79;100117.31;5026459;28;19994;-81
2022/01/28 02:55:40;;;;;;;;;;;;;;;-1.66;58.24;100120.03;5024635;28;20617;-81
2022/01/28 02:58:18;;;;;;;;;;;;;;;-1.55;57.86;100122.19;5022047;28;19917;-81
2022/01/28 03:00:46;;;;;;;;;;;;;;;-1.50;58.14;100124.13;5006181;28;19920;-81
2022/01/28 03:03:11;;;;;;;;;;;;;;;-1.57;58.45;100131.59;5006694;28;19909;-82
2022/01/28 03:05:37;;;;;;;;;;;;;;;-1.85;58.82;100141.66;5006511;28;20303;-81
2022/01/28 03:08:04;;;;;;;;;;;;;;;-1.76;58.94;100137.69;5010021;28;20304;-81
2022/01/28 03:15:51;;;;;;;;;;;;;;;-2.09;59.56;100133.75;5000359;28;20023;-81
2022/01/28 03:18:24;;;;;;;;;;;;;;;-1.83;59.65;100113.28;5025996;28;19916;-82
2022/01/28 03:23:18;;;;;;;;;;;;;;;-1.54;58.71;100130.00;5026194;28;19909;-83
2022/01/28 03:25:45;;;;;;;;;;;;;;;-1.47;58.41;100125.94;5027323;28;19917;-82
2022/01/28 03:28:11;;;;;;;;;;;;;;;-1.50;58.26;100136.16;5029743;28;19917;-82
2022/01/28 03:30:36;;;;;;;;;;;;;;;-1.22;57.49;100134.69;5029936;28;19920;-81
2022/01/28 03:33:01;;;;;;;;;;;;;;;-1.45;57.86;100132.97;5028959;28;19913;-81
2022/01/28 03:35:27;;;;;;;;;;;;;;;-1.36;58.63;100126.38;5012155;28;19980;-82
2022/01/28 03:37:59;;;;;;;;;;;;;;;-1.55;59.00;100135.13;5018171;28;20376;-82
2022/01/28 03:40:24;;;;;;;;;;;;;;;-1.60;59.11;100124.56;5022590;28;19931;-81
2022/01/28 03:42:50;;;;;;;;;;;;;;;-1.58;59.45;100122.06;5010205;28;19913;-81
2022/01/28 03:45:15;;;;;;;;;;;;;;;-1.73;59.96;100117.13;5009036;28;19914;-81
2022/01/28 03:47:40;;;;;;;;;;;;;;;-1.84;60.64;100127.94;5016510;28;19917;-81
2022/01/28 03:50:06;;;;;;;;;;;;;;;-1.74;60.37;100123.13;5027010;28;19924;-81
2022/01/28 03:52:31;;;;;;;;;;;;;;;-1.56;59.64;100123.91;5029384;28;20714;-81
2022/01/28 03:54:57;;;;;;;;;;;;;;;-1.56;60.38;100115.22;5015358;28;19917;-81
2022/01/28 03:57:22;;;;;;;;;;;;;;;-1.66;60.16;100114.84;5010891;28;19917;-80
2022/01/28 03:59:47;;;;;;;;;;;;;;;-1.72;60.54;100119.78;5010313;28;19913;-81
2022/01/28 04:02:13;;;;;;;;;;;;;;;-1.62;60.33;100121.94;5021633;28;19917;-82
2022/01/28 04:12:45;;;;;;;;;;;;;;;-2.00;63.66;100116.03;5010274;28;19936;-81
2022/01/28 04:15:36;;;;;;;;;;;;;;;-2.53;66.12;100114.63;5008947;28;19917;-82
2022/01/28 04:18:01;;;;;;;;;;;;;;;-2.29;65.72;100112.22;5009315;28;19913;-82
2022/01/28 04:20:27;;;;;;;;;;;;;;;-1.94;64.43;100115.41;5018940;28;19917;-82
2022/01/28 04:22:52;;;;;;;;;;;;;;;-1.85;63.27;100115.81;5029000;28;19988;-82
2022/01/28 04:25:17;;;;;;;;;;;;;;;-2.14;64.87;100108.53;5012123;28;19949;-83
2022/01/28 04:27:43;;;;;;;;;;;;;;;-2.32;65.12;100108.63;5008800;28;20000;-83
2022/01/28 04:30:08;;;;;;;;;;;;;;;-2.69;66.21;100123.38;5008341;28;20529;-83
2022/01/28 04:32:35;;;;;;;;;;;;;;;-2.59;66.21;100127.28;5008339;28;19917;-83
2022/01/28 04:35:00;;;;;;;;;;;;;;;-2.40;65.03;100113.47;5025798;28;20741;-83
2022/01/28 04:37:46;;;;;;;;;;;;;;;-2.55;65.31;100116.25;5026330;28;19919;-83
2022/01/28 04:40:14;;;;;;;;;;;;;;;-2.49;64.68;100101.00;5023019;28;19917;-82
2022/01/28 04:50:22;;;;;;;;;;;;;;;-2.57;64.52;100095.50;5012248;28;19949;-81
2022/01/28 05:14:14;;;;;;;;;;;;;;;-2.46;64.38;100066.69;5023491;28;19924;-82
2022/01/28 05:27:10;;;;;;;;;;;;;;;-2.71;63.56;100076.81;5026982;28;19916;-84
2022/01/28 05:29:36;;;;;;;;;;;;;;;-2.66;63.37;100076.13;5023104;28;19966;-84
2022/01/28 05:32:02;;;;;;;;;;;;;;;-2.63;63.09;100074.56;5025883;28;20372;-84
2022/01/28 05:34:27;;;;;;;;;;;;;;;-2.82;63.54;100077.16;5025259;28;20004;-84
2022/01/28 05:36:53;;;;;;;;;;;;;;;-2.84;63.64;100077.09;5027733;28;19909;-83
2022/01/28 05:39:19;;;;;;;;;;;;;;;-2.60;63.28;100082.44;5023571;28;19917;-83
2022/01/28 05:41:44;;;;;;;;;;;;;;;-2.58;63.11;100082.50;5027803;28;19999;-83
2022/01/28 05:44:10;;;;;;;;;;;;;;;-2.69;62.65;100089.78;5026293;28;19913;-83
2022/01/28 05:46:35;;;;;;;;;;;;;;;-2.59;61.80;100088.53;5008175;28;19917;-82
2022/01/28 05:49:00;;;;;;;;;;;;;;;-2.54;61.46;100080.13;5016842;28;19935;-83
2022/01/28 05:51:26;;;;;;;;;;;;;;;-2.63;61.52;100078.84;5018798;28;19921;-82
2022/01/28 05:53:53;;;;;;;;;;;;;;;-2.56;61.67;100086.94;5022393;28;20040;-81
2022/01/28 05:56:19;;;;;;;;;;;;;;;-2.32;60.97;100078.47;5027175;28;19917;-81
2022/01/28 05:58:44;;;;;;;;;;;;;;;-2.22;60.42;100083.22;5027286;28;19909;-81
2022/01/28 06:01:10;;;;;;;;;;;;;;;-2.16;60.64;100087.78;5026624;28;19913;-81
2022/01/28 06:03:35;;;;;;;;;;;;;;;-2.29;61.39;100094.13;5026501;28;20012;-82
2022/01/28 06:06:00;;;;;;;;;;;;;;;-2.41;60.82;100097.06;5026739;28;19979;-82
2022/01/28 06:08:25;;;;;;;;;;;;;;;-2.46;62.20;100100.28;5026288;28;19921;-82
2022/01/28 06:10:51;;;;;;;;;;;;;;;-2.56;62.43;100096.41;5024460;28;19925;-82
2022/01/28 06:13:16;;;;;;;;;;;;;;;-2.37;62.20;100098.09;5024952;28;19966;-83
2022/01/28 06:15:42;;;;;;;;;;;;;;;-2.30;62.46;100101.81;5014799;28;19917;-83
2022/01/28 06:18:08;;;;;;;;;;;;;;;-2.39;62.53;100087.69;5007453;28;20367;-81
2022/01/28 06:20:33;;;;;;;;;;;;;;;-2.61;63.22;100097.88;5009962;28;19975;-83
2022/01/28 06:22:59;;;;;;;;;;;;;;;-2.29;62.65;100103.59;5011851;28;19913;-82
2022/01/28 06:25:24;;;;;;;;;;;;;;;-2.16;62.95;100105.88;5026183;28;20010;-81
2022/01/28 06:27:50;;;;;;;;;;;;;;;-2.04;63.23;100098.66;5018884;28;20383;-81
2022/01/28 06:30:16;;;;;;;;;;;;;;;-1.95;62.51;100099.84;5007540;28;20356;-82
2022/01/28 06:32:42;;;;;;;;;;;;;;;-1.87;62.65;100108.78;5026797;28;19917;-82
2022/01/28 06:35:08;;;;;;;;;;;;;;;-1.74;63.06;100099.84;5026615;28;19921;-81
2022/01/28 06:37:37;;;;;;;;;;;;;;;-1.87;63.13;100093.28;5021176;28;19913;-81
2022/01/28 06:40:03;;;;;;;;;;;;;;;-1.87;63.26;100095.88;5007538;28;20463;-82
2022/01/28 06:42:29;;;;;;;;;;;;;;;-1.63;62.80;100094.28;5013522;28;20026;-81
2022/01/28 06:44:54;;;;;;;;;;;;;;;-1.56;62.24;100094.53;5025215;28;20429;-81
2022/01/28 06:47:20;;;;;;;;;;;;;;;-1.69;61.91;100098.34;5006063;28;20430;-81
2022/01/28 06:49:45;;;;;;;;;;;;;;;-1.51;62.12;100103.38;5011501;28;20418;-82
2022/01/28 06:52:10;;;;;;;;;;;;;;;-1.03;62.81;100111.28;5017073;28;19913;-82
2022/01/28 06:54:36;;;;;;;;;;;;;;;-0.77;61.76;100111.41;5018249;28;19968;-81
2022/01/28 06:57:01;;;;;;;;;;;;;;;-0.64;61.07;100105.81;5006366;28;19959;-81
2022/01/28 06:59:26;;;;;;;;;;;;;;;-0.39;60.33;100099.84;5006946;28;20308;-82
2022/01/28 07:01:53;;;;;;;;;;;;;;;-0.05;58.75;100097.53;5011849;28;20004;-82
2022/01/28 07:04:19;;;;;;;;;;;;;;;0.21;58.07;100106.19;5012859;28;20429;-80
2022/01/28 07:06:45;;;;;;;;;;;;;;;0.29;57.79;100091.72;5020292;28;19920;-81
2022/01/28 07:09:10;;;;;;;;;;;;;;;0.39;57.64;100099.81;5033974;28;19912;-81
2022/01/28 07:11:36;;;;;;;;;;;;;;;0.50;57.23;100098.47;5032725;28;19913;-81
2022/01/28 07:14:01;;;;;;;;;;;;;;;0.49;57.04;100100.16;5033075;28;20415;-81
2022/01/28 07:16:27;;;;;;;;;;;;;;;0.79;57.07;100082.91;5032866;28;20355;-81
2022/01/28 07:18:52;;;;;;;;;;;;;;;1.11;56.21;100090.78;5032835;28;19913;-81
2022/01/28 07:21:17;;;;;;;;;;;;;;;1.03;57.51;100096.63;5032890;28;19913;-82
2022/01/28 07:23:45;;;;;;;;;;;;;;;1.15;56.67;100095.25;5033145;28;20362;-80
2022/01/28 07:26:11;;;;;;;;;;;;;;;1.26;56.52;100083.44;5032488;28;19917;-81
2022/01/28 07:28:38;;;;;;;;;;;;;;;1.32;55.91;100095.75;5032865;28;19915;-81
2022/01/28 07:31:04;;;;;;;;;;;;;;;1.29;57.14;100091.34;5031703;28;19944;-79
2022/01/28 07:33:29;;;;;;;;;;;;;;;1.74;56.13;100097.78;5032397;28;20367;-80
2022/01/28 07:35:54;;;;;;;;;;;;;;;1.86;55.94;100090.28;5032914;28;19916;-79
2022/01/28 07:38:20;;;;;;;;;;;;;;;1.96;55.56;100081.00;5032209;28;19925;-81
2022/01/28 07:40:45;;;;;;;;;;;;;;;2.45;53.02;100081.34;5032633;28;19917;-80
2022/01/28 07:43:10;;;;;;;;;;;;;;;2.76;52.36;100066.44;5032864;28;20284;-81
2022/01/28 07:45:36;;;;;;;;;;;;;;;2.90;51.21;100072.81;5032236;28;19999;-82
2022/01/28 07:48:01;;;;;;;;;;;;;;;2.73;51.64;100071.59;5030987;28;19988;-81
2022/01/28 07:50:26;;;;;;;;;;;;;;;2.88;52.21;100073.66;5032263;28;19909;-80
2022/01/28 07:52:52;;;;;;;;;;;;;;;3.03;50.84;100074.88;5032536;28;19913;-82
2022/01/28 07:55:17;;;;;;;;;;;;;;;3.12;50.81;100065.47;5032258;28;20370;-80
2022/01/28 07:57:43;;;;;;;;;;;;;;;3.12;51.36;100062.88;5032783;28;20407;-80
2022/01/28 08:00:10;;;;;;;;;;;;;;;3.21;50.50;100068.28;5032735;28;19919;-82
2022/01/28 08:02:35;;;;;;;;;;;;;;;3.24;49.88;100070.94;5032054;28;19913;-83
2022/01/28 08:05:01;;;;;;;;;;;;;;;3.14;50.05;100069.88;5032615;28;19913;-82
2022/01/28 08:07:26;;;;;;;;;;;;;;;3.04;49.84;100074.03;5032811;28;19913;-82
2022/01/28 08:09:52;;;;;;;;;;;;;;;3.19;49.72;100069.97;5030998;28;19920;-82
2022/01/28 08:12:17;;;;;;;;;;;;;;;3.15;49.98;100068.16;5029293;28;19917;-82
2022/01/28 08:14:42;;;;;;;;;;;;;;;3.08;49.67;100072.38;5029122;28;20012;-83
2022/01/28 08:17:08;;;;;;;;;;;;;;;2.92;50.98;100072.88;5029453;28;19920;-82
2022/01/28 08:19:33;;;;;;;;;;;;;;;3.24;50.30;100063.13;5028967;28;19917;-83
2022/01/28 08:21:58;;;;;;;;;;;;;;;3.44;49.91;100067.88;5028756;28;20655;-81
2022/01/28 08:24:24;;;;;;;;;;;;;;;3.50;50.13;100049.72;5028105;28;20756;-81
2022/01/28 08:26:49;;;;;;;;;;;;;;;3.82;49.74;100058.16;5027077;28;19916;-82
2022/01/28 08:29:15;;;;;;;;;;;;;;;4.35;48.01;100059.06;5028633;28;19913;-81
2022/01/28 08:31:40;;;;;;;;;;;;;;;4.45;48.38;100060.97;5028953;28;19913;-81
2022/01/28 08:34:05;;;;;;;;;;;;;;;4.07;47.93;100050.75;5028157;28;19919;-81
2022/01/28 08:36:31;;;;;;;;;;;;;;;4.43;48.09;100040.06;5029047;28;19909;-83
2022/01/28 08:38:57;;;;;;;;;;;;;;;4.75;48.08;100051.81;5026032;28;20493;-82
2022/01/28 08:41:22;;;;;;;;;;;;;;;4.63;46.20;100050.81;5027884;28;20307;-82
2022/01/28 08:43:48;;;;;;;;;;;;;;;4.25;47.38;100056.28;5028987;28;19913;-82
2022/01/28 08:46:13;;;;;;;;;;;;;;;4.52;47.88;100062.81;5028189;28;19986;-82
2022/01/28 08:48:38;;;;;;;;;;;;;;;4.66;46.84;100042.09;5028154;28;20626;-81
2022/01/28 08:51:04;;;;;;;;;;;;;;;4.59;48.39;100045.50;5027346;28;19913;-81
2022/01/28 08:53:29;;;;;;;;;;;;;;;4.41;49.31;100046.97;5027177;28;19920;-80
2022/01/28 08:55:55;;;;;;;;;;;;;;;4.06;49.51;100054.22;5027564;28;19932;-81
2022/01/28 08:58:20;;;;;;;;;;;;;;;3.86;48.61;100051.25;5028597;28;19913;-81
2022/01/28 09:00:48;;;;;;;;;;;;;;;3.88;49.45;100053.06;5028469;28;19917;-81
2022/01/28 09:03:16;;;;;;;;;;;;;;;3.93;50.29;100048.78;5027345;28;20662;-79
2022/01/28 09:05:42;;;;;;;;;;;;;;;4.21;49.22;100054.47;5026938;28;20299;-81
2022/01/28 09:08:09;;;;;;;;;;;;;;;4.31;48.85;100045.09;5027526;28;19917;-81
2022/01/28 09:10:37;;;;;;;;;;;;;;;4.37;47.93;100034.72;5026441;28;19921;-81
2022/01/28 09:15:34;;;;;;;;;;;;;;;4.37;48.38;100023.38;5027699;28;19917;-80
2022/01/28 09:18:00;;;;;;;;;;;;;;;4.27;49.20;100017.16;5026983;28;19963;-82
2022/01/28 09:20:25;;;;;;;;;;;;;;;4.22;49.45;100013.59;5027659;28;19917;-84
2022/01/28 09:22:51;;;;;;;;;;;;;;;4.45;48.94;100016.56;5027246;28;19913;-82
2022/01/28 09:25:16;;;;;;;;;;;;;;;4.48;49.56;100016.59;5027443;28;19999;-85
2022/01/28 09:27:41;;;;;;;;;;;;;;;4.52;49.42;100010.56;5028392;28;19912;-81
2022/01/28 09:30:08;;;;;;;;;;;;;;;4.88;49.35;99982.28;5027689;28;20286;-85
2022/01/28 09:32:34;;;;;;;;;;;;;;;5.06;48.17;99982.50;5025690;28;19919;-83
2022/01/28 09:35:00;;;;;;;;;;;;;;;5.31;48.10;99975.81;5028476;28;19909;-83
2022/01/28 09:37:25;;;;;;;;;;;;;;;5.51;48.60;99956.84;5027119;28;19921;-85
2022/01/28 09:39:51;;;;;;;;;;;;;;;5.89;47.73;99956.31;5026976;28;19963;-86
2022/01/28 09:42:19;;;;;;;;;;;;;;;5.83;46.42;99941.41;5028163;28;20310;-84
2022/01/28 09:44:44;;;;;;;;;;;;;;;5.85;46.30;99937.06;5026891;28;19916;-85
2022/01/28 09:47:14;;;;;;;;;;;;;;;5.87;46.02;99940.59;5025892;28;19975;-84
2022/01/28 09:49:40;;;;;;;;;;;;;;;6.34;45.06;99925.22;5026799;28;19913;-85
2022/01/28 09:52:06;;;;;;;;;;;;;;;6.82;43.21;99919.31;5027001;28;19964;-85
2022/01/28 09:54:32;;;;;;;;;;;;;;;6.95;41.93;99908.88;5027918;28;19916;-85
2022/01/28 09:56:58;;;;;;;;;;;;;;;7.19;43.04;99907.22;5025644;28;19960;-85
2022/01/28 09:59:24;;;;;;;;;;;;;;;7.16;42.53;99906.31;5026535;28;19917;-85
2022/01/28 10:01:49;;;;;;;;;;;;;;;7.18;43.62;99906.31;5026648;28;19924;-85
2022/01/28 10:04:17;;;;;;;;;;;;;;;7.45;43.64;99889.75;5025304;28;19909;-84
2022/01/28 10:06:43;;;;;;;;;;;;;;;7.70;41.75;99881.88;5026965;28;19971;-87
2022/01/28 10:09:09;;;;;;;;;;;;;;;8.01;40.58;99874.84;5026597;28;19909;-86
2022/01/28 10:11:37;;;;;;;;;;;;;;;8.20;40.74;99877.44;5026590;28;19913;-86
2022/01/28 10:14:08;;;;;;;;;;;;;;;8.29;40.49;99877.41;5026572;28;20713;-87
2022/01/28 10:16:34;;;;;;;;;;;;;;;8.46;41.21;99871.25;5025727;28;20073;-86
2022/01/28 10:19:09;;;;;;;;;;;;;;;8.84;39.92;99865.84;5027221;28;19912;-88
2022/01/28 10:21:38;;;;;;;;;;;;;;;9.09;39.14;99857.81;5027451;28;19909;-86
2022/01/28 10:24:03;;;;;;;;;;;;;;;9.79;33.49;99848.50;5027198;28;20003;-87
2022/01/28 10:26:33;;;;;;;;;;;;;;;10.83;30.98;99848.22;5027067;28;19935;-86
2022/01/28 10:28:59;;;;;;;;;;;;;;;11.39;29.62;99836.84;5025738;28;19994;-89
2022/01/28 10:31:41;;;;;;;;;;;;;;;11.51;28.60;99830.44;5025314;28;19991;-88
2022/01/28 10:34:17;;;;;;;;;;;;;;;11.62;27.71;99829.38;5025404;28;19916;-87
2022/01/28 10:36:44;;;;;;;;;;;;;;;11.63;28.34;99832.88;5025963;28;19909;-87
2022/01/28 10:39:14;;;;;;;;;;;;;;;11.56;28.39;99823.34;5026105;28;19909;-86
2022/01/28 10:41:49;;;;;;;;;;;;;;;11.48;29.53;99841.97;5024881;28;19952;-86
2022/01/28 10:44:15;;;;;;;;;;;;;;;11.38;28.40;99835.94;5026525;28;19913;-87
2022/01/28 10:46:41;;;;;;;;;;;;;;;11.38;29.56;99830.66;5026682;28;20409;-87
2022/01/28 10:49:08;;;;;;;;;;;;;;;11.53;28.74;99829.53;5025638;28;19917;-86
2022/01/28 10:51:41;;;;;;;;;;;;;;;11.51;27.65;99834.00;5025123;28;19924;-87
2022/01/28 10:54:13;;;;;;;;;;;;;;;11.64;28.51;99832.00;5025748;28;19959;-85
2022/01/28 10:56:50;;;;;;;;;;;;;;;11.76;27.48;99831.78;5027250;28;19909;-86
2022/01/28 10:59:17;;;;;;;;;;;;;;;11.86;26.77;99816.63;5025395;28;20361;-86
2022/01/28 11:01:43;;;;;;;;;;;;;;;11.92;26.97;99827.13;5012715;28;19975;-87
2022/01/28 11:04:10;;;;;;;;;;;;;;;12.03;26.49;99837.50;5006417;28;19913;-87
2022/01/28 11:06:36;;;;;;;;;;;;;;;12.11;26.99;99840.88;5005240;28;19920;-87
2022/01/28 11:09:02;;;;;;;;;;;;;;;12.11;26.71;99829.41;5007197;28;19918;-86
2022/01/28 11:11:27;;;;;;;;;;;;;;;12.29;26.59;99842.28;5013353;28;19921;-84
2022/01/28 11:13:53;;;;;;;;;;;;;;;12.51;27.15;99842.75;5024500;28;19943;-87
2022/01/28 11:16:18;;;;;;;;;;;;;;;12.55;27.17;99838.25;5025793;28;19913;-86
2022/01/28 11:18:44;;;;;;;;;;;;;;;12.66;27.36;99844.19;5026625;28;19999;-87
2022/01/28 11:21:14;;;;;;;;;;;;;;;12.32;27.46;99838.72;5026423;28;19975;-85
2022/01/28 11:23:52;;;;;;;;;;;;;;;12.26;27.51;99846.78;5026320;28;19994;-86
2022/01/28 11:26:17;;;;;;;;;;;;;;;12.21;27.85;99831.00;5023333;28;19966;-87
2022/01/28 11:28:46;;;;;;;;;;;;;;;12.27;27.52;99819.44;5026209;28;19909;-87
2022/01/28 11:31:12;;;;;;;;;;;;;;;12.13;27.93;99828.50;5024516;28;19963;-84
2022/01/28 11:33:48;;;;;;;;;;;;;;;12.18;28.02;99833.69;5024852;28;20358;-85
2022/01/28 11:36:29;;;;;;;;;;;;;;;12.28;28.00;99818.50;5026164;28;19932;-87
2022/01/28 11:38:56;;;;;;;;;;;;;;;12.18;28.00;99815.19;5025198;28;19921;-85
2022/01/28 11:41:24;;;;;;;;;;;;;;;12.06;28.15;99826.84;5025822;28;19943;-86
2022/01/28 11:43:54;;;;;;;;;;;;;;;11.97;28.44;99812.06;5025110;28;19996;-86
2022/01/28 11:46:21;;;;;;;;;;;;;;;11.99;28.61;99798.81;5026492;28;19959;-87
2022/01/28 11:48:55;;;;;;;;;;;;;;;11.86;28.60;99807.84;5029557;28;19917;-84
2022/01/28 11:51:41;;;;;;;;;;;;;;;11.98;29.07;99813.78;5028159;28;19913;-87
2022/01/28 11:54:08;;;;;;;;;;;;;;;12.01;28.47;99810.22;5029555;28;19920;-87
2022/01/28 11:56:37;;;;;;;;;;;;;;;12.09;28.81;99818.00;5029394;28;19917;-87
2022/01/28 11:59:04;;;;;;;;;;;;;;;12.08;28.85;99816.25;5030221;28;19919;-86
2022/01/28 12:01:38;;;;;;;;;;;;;;;12.01;28.75;99812.88;5029176;28;19913;-85
2022/01/28 12:04:22;;;;;;;;;;;;;;;12.00;29.05;99819.94;5029786;28;19913;-86
2022/01/28 12:06:50;;;;;;;;;;;;;;;12.09;28.83;99816.22;5029371;28;19920;-86
2022/01/28 12:09:17;;;;;;;;;;;;;;;12.17;28.66;99806.38;5028024;28;20409;-86
2022/01/28 12:11:43;;;;;;;;;;;;;;;12.28;29.71;99814.13;5029723;28;20012;-85
2022/01/28 12:14:12;;;;;;;;;;;;;;;12.27;29.34;99828.22;5029412;28;20411;-86
2022/01/28 12:16:42;;;;;;;;;;;;;;;12.28;29.39;99810.56;5028933;28;19931;-86
2022/01/28 12:19:17;;;;;;;;;;;;;;;12.32;29.75;99821.06;5028773;28;20410;-86
2022/01/28 12:22:02;;;;;;;;;;;;;;;12.36;29.32;99822.75;5027822;28;20755;-87
2022/01/28 12:24:31;;;;;;;;;;;;;;;12.30;28.80;99811.44;5028453;28;19959;-85
2022/01/28 12:27:00;;;;;;;;;;;;;;;12.13;29.40;99823.22;5028545;28;19966;-87
2022/01/28 12:29:29;;;;;;;;;;;;;;;12.14;29.85;99810.84;5028312;28;19915;-86
2022/01/28 12:31:58;;;;;;;;;;;;;;;12.34;30.04;99814.00;5028512;28;19913;-86
2022/01/28 12:34:24;;;;;;;;;;;;;;;12.42;29.94;99819.13;5029620;28;19905;-87
2022/01/28 12:36:49;;;;;;;;;;;;;;;12.30;30.16;99820.22;5028606;28;19936;-86
2022/01/28 12:39:21;;;;;;;;;;;;;;;12.40;29.98;99823.56;5029017;28;19959;-86
2022/01/28 12:41:55;;;;;;;;;;;;;;;12.48;29.45;99832.22;5028679;28;19944;-87
2022/01/28 12:44:20;;;;;;;;;;;;;;;12.59;30.25;99825.81;5029232;28;19920;-87
2022/01/28 12:46:52;;;;;;;;;;;;;;;12.79;30.21;99810.41;5028850;28;20338;-86
2022/01/28 12:49:24;;;;;;;;;;;;;;;12.81;29.65;99815.66;5027451;28;20293;-85
2022/01/28 12:51:53;;;;;;;;;;;;;;;12.75;30.23;99806.06;5028801;28;20445;-86
2022/01/28 12:54:28;;;;;;;;;;;;;;;12.89;30.04;99821.66;5028577;28;20272;-85
2022/01/28 12:56:53;;;;;;;;;;;;;;;12.37;30.22;99818.31;5029092;28;20015;-86
2022/01/28 12:59:18;;;;;;;;;;;;;;;12.14;30.59;99816.13;5026486;28;20686;-86
2022/01/28 13:01:50;;;;;;;;;;;;;;;12.00;31.05;99819.03;5027653;28;20446;-85
2022/01/28 13:04:19;;;;;;;;;;;;;;;12.19;31.18;99811.66;5027991;28;19920;-86
2022/01/28 13:09:14;;;;;;;;;;;;;;;12.07;31.51;99811.88;5028510;28;19975;-86
2022/01/28 13:11:40;;;;;;;;;;;;;;;11.99;31.53;99804.97;5027778;28;19917;-86
2022/01/28 13:14:05;;;;;;;;;;;;;;;12.24;31.67;99807.13;5028175;28;19916;-85
2022/01/28 13:16:35;;;;;;;;;;;;;;;12.02;31.57;99813.72;5027035;28;20411;-86
2022/01/28 13:19:01;;;;;;;;;;;;;;;11.71;32.01;99819.53;5028476;28;19913;-85
2022/01/28 13:21:27;;;;;;;;;;;;;;;11.36;32.54;99824.53;5026797;28;19912;-87
2022/01/28 13:24:13;;;;;;;;;;;;;;;11.34;32.65;99828.09;5028206;28;19912;-85
2022/01/28 13:26:53;;;;;;;;;;;;;;;11.49;32.80;99827.84;5026910;28;19909;-86
2022/01/28 13:29:27;;;;;;;;;;;;;;;11.42;32.47;99832.34;5028240;28;19916;-86
2022/01/28 13:31:53;;;;;;;;;;;;;;;11.17;32.85;99837.16;5026802;28;19920;-86
2022/01/28 13:34:18;;;;;;;;;;;;;;;10.80;33.59;99840.34;5027377;28;19913;-86
2022/01/28 13:36:47;;;;;;;;;;;;;;;10.75;34.14;99842.13;5027601;28;20299;-84
2022/01/28 13:39:17;;;;;;;;;;;;;;;10.70;34.44;99831.66;5027257;28;19909;-86
2022/01/28 13:41:43;;;;;;;;;;;;;;;10.67;35.28;99846.66;5008524;28;20415;-87
2022/01/28 13:44:22;;;;;;;;;;;;;;;10.42;36.20;99851.38;5007784;28;20007;-87
2022/01/28 13:46:54;;;;;;;;;;;;;;;10.52;36.87;99850.38;5008707;28;19917;-93
2022/01/28 13:49:20;;;;;;;;;;;;;;;10.45;37.08;99856.59;5011831;28;19928;-89
2022/01/28 13:51:46;;;;;;;;;;;;;;;10.48;37.10;99853.94;5021025;28;19986;-90
2022/01/28 13:54:15;;;;;;;;;;;;;;;10.38;37.43;99854.03;5015822;28;20367;-86
2022/01/28 13:56:46;;;;;;;;;;;;;;;10.26;37.91;99859.41;5015116;28;19957;-88
2022/01/28 13:59:30;;;;;;;;;;;;;;;10.04;38.14;99864.91;5015452;28;19913;-87
2022/01/28 14:01:59;;;;;;;;;;;;;;;10.03;39.08;99863.16;5027219;28;19913;-87
2022/01/28 14:04:35;;;;;;;;;;;;;;;9.99;38.38;99856.19;5027182;28;20668;-87
2022/01/28 14:07:10;;;;;;;;;;;;;;;9.88;39.16;99870.34;5025919;28;20291;-87
2022/01/28 14:09:50;;;;;;;;;;;;;;;9.77;39.12;99865.19;5025794;28;20372;-86
2022/01/28 14:12:23;;;;;;;;;;;;;;;9.59;38.82;99877.63;5026692;28;19916;-86
2022/01/28 14:14:48;;;;;;;;;;;;;;;9.50;39.10;99875.06;5016815;28;19917;-88
2022/01/28 14:17:14;;;;;;;;;;;;;;;9.49;39.27;99882.09;5004728;28;19971;-86
2022/01/28 14:19:41;;;;;;;;;;;;;;;9.55;39.99;99890.84;5010659;28;19913;-86